createdAt,value
2023-01-30T00:02:27.757Z,27.30
2023-01-30T00:05:44.463Z,19.02
2023-01-30T00:08:54.021Z,26.23
2023-01-30T00:12:04.780Z,24.15
2023-01-30T00:15:14.630Z,24.65
2023-01-30T00:18:20.684Z,26.58
2023-01-30T00:21:25.315Z,23.17
2023-01-30T00:24:28.872Z,25.07
2023-01-30T00:27:32.807Z,26.63
2023-01-30T00:30:38.035Z,24.17
2023-01-30T00:33:45.939Z,23.20
2023-01-30T00:36:58.856Z,26.13
2023-01-30T00:40:11.741Z,28.27
2023-01-30T00:43:36.807Z,26.75
2023-01-30T00:47:01.613Z,22.05
2023-01-30T00:50:05.760Z,25.15
2023-01-30T00:53:22.907Z,26.40
2023-01-30T00:56:31.159Z,24.23
2023-01-30T00:59:36.142Z,27.13
2023-01-30T01:02:40.357Z,22.85
2023-01-30T01:05:46.616Z,24.00
2023-01-30T01:08:52.795Z,24.75
2023-01-30T01:11:57.950Z,23.37
2023-01-30T01:15:03.022Z,21.55
2023-01-30T01:18:08.471Z,24.75
2023-01-30T01:21:24.520Z,23.17
2023-01-30T01:24:49.311Z,23.40
2023-01-30T01:27:55.449Z,24.60
2023-01-30T01:31:00.860Z,20.58
2023-01-30T01:34:05.388Z,26.45
2023-01-30T01:37:12.992Z,22.77
2023-01-30T01:40:43.249Z,25.95
2023-01-30T01:44:04.416Z,25.10
2023-01-30T01:47:09.906Z,23.42
2023-01-30T01:50:36.644Z,27.83
2023-01-30T01:53:55.827Z,24.55
2023-01-30T01:57:08.366Z,25.50
2023-01-30T02:00:18.275Z,23.13
2023-01-30T02:03:36.115Z,23.85
2023-01-30T02:06:47.873Z,26.15
2023-01-30T02:09:52.035Z,24.33
2023-01-30T02:13:00.160Z,20.45
2023-01-30T02:16:10.516Z,22.30
2023-01-30T02:19:33.067Z,25.35
2023-01-30T02:22:53.828Z,24.13
2023-01-30T02:26:08.183Z,23.33
2023-01-30T02:29:41.247Z,24.92
2023-01-30T02:33:15.062Z,22.97
2023-01-30T02:36:56.768Z,24.88
2023-01-30T02:40:27.990Z,26.23
2023-01-30T02:44:06.064Z,24.45
2023-01-30T02:47:20.930Z,24.25
2023-01-30T02:50:29.361Z,23.10
2023-01-30T02:53:34.068Z,24.80
2023-01-30T02:56:52.496Z,27.13
2023-01-30T02:59:59.254Z,25.90
2023-01-30T03:03:32.405Z,24.55
2023-01-30T03:06:48.862Z,25.73
2023-01-30T03:10:07.804Z,24.23
2023-01-30T03:13:21.230Z,28.73
2023-01-30T03:16:34.624Z,29.73
2023-01-30T03:20:02.969Z,26.02
2023-01-30T03:23:19.928Z,28.57
2023-01-30T03:26:33.311Z,24.35
2023-01-30T03:29:38.857Z,26.92
2023-01-30T03:32:56.033Z,26.52
2023-01-30T03:35:58.835Z,29.80
2023-01-30T03:39:01.229Z,29.10
2023-01-30T03:42:10.038Z,29.85
2023-01-30T03:45:18.080Z,27.67
2023-01-30T03:48:22.679Z,29.13
2023-01-30T03:51:28.019Z,24.98
2023-01-30T03:54:31.299Z,24.47
2023-01-30T03:57:37.125Z,27.50
2023-01-30T04:00:45.422Z,27.83
2023-01-30T04:04:01.943Z,26.55
2023-01-30T04:10:34.220Z,21.93
2023-01-30T04:13:36.497Z,22.13
2023-01-30T04:16:44.444Z,27.13
2023-01-30T04:20:11.229Z,24.15
2023-01-30T04:23:29.523Z,23.30
2023-01-30T04:26:32.797Z,25.43
2023-01-30T04:29:37.937Z,26.65
2023-01-30T04:32:48.291Z,36.75
2023-01-30T04:35:57.353Z,29.95
2023-01-30T04:39:02.552Z,24.92
2023-01-30T04:42:13.638Z,27.10
2023-01-30T04:45:30.904Z,29.67
2023-01-30T04:48:33.185Z,27.67
2023-01-30T04:51:38.087Z,25.27
2023-01-30T04:54:46.441Z,25.98
2023-01-30T04:57:48.755Z,29.07
2023-01-30T05:00:54.017Z,28.90
2023-01-30T05:03:56.575Z,27.73
2023-01-30T05:06:59.013Z,24.98
2023-01-30T05:10:04.202Z,25.75
2023-01-30T05:13:16.893Z,27.50
2023-01-30T05:16:28.940Z,27.38
2023-01-30T05:19:31.407Z,25.70
2023-01-30T05:22:38.317Z,25.85
2023-01-30T05:25:52.838Z,24.80
2023-01-30T05:29:00.714Z,24.23
2023-01-30T05:32:11.269Z,28.40
2023-01-30T05:35:19.158Z,26.50
2023-01-30T05:38:30.470Z,57.92
2023-01-30T05:41:33.854Z,27.98
2023-01-30T05:44:39.080Z,28.03
2023-01-30T05:48:01.593Z,27.98
2023-01-30T05:51:04.277Z,28.10
2023-01-30T05:54:07.650Z,32.92
2023-01-30T05:57:20.717Z,31.23
2023-01-30T06:00:31.104Z,30.63
2023-01-30T06:03:36.036Z,35.33
2023-01-30T06:06:41.346Z,27.50
2023-01-30T06:09:43.599Z,28.55
2023-01-30T06:12:48.015Z,27.20
2023-01-30T06:15:55.874Z,26.83
2023-01-30T06:19:02.595Z,25.52
2023-01-30T06:22:07.372Z,26.63
2023-01-30T06:25:15.550Z,31.52
2023-01-30T06:28:20.541Z,34.58
2023-01-30T06:31:27.870Z,29.77
2023-01-30T06:34:32.977Z,31.13
2023-01-30T06:37:35.523Z,30.65
2023-01-30T06:40:42.007Z,34.88
2023-01-30T06:43:46.994Z,28.73
2023-01-30T06:46:52.999Z,27.57
2023-01-30T06:50:00.623Z,29.50
2023-01-30T06:53:06.374Z,35.47
2023-01-30T06:56:13.984Z,27.80
2023-01-30T06:59:16.299Z,25.95
2023-01-30T07:02:37.402Z,28.07
2023-01-30T07:05:45.855Z,28.88
2023-01-30T07:09:00.844Z,32.35
2023-01-30T07:12:08.043Z,31.15
2023-01-30T07:15:13.496Z,30.05
2023-01-30T07:18:18.698Z,27.63
2023-01-30T07:21:33.043Z,21.58
2023-01-30T07:24:48.133Z,26.45
2023-01-30T07:27:56.281Z,30.17
2023-01-30T07:31:02.051Z,38.17
2023-01-30T07:34:24.101Z,36.43
2023-01-30T07:37:30.445Z,28.30
2023-01-30T07:40:37.328Z,29.83
2023-01-30T07:43:49.044Z,28.25
2023-01-30T07:46:54.354Z,23.55
2023-01-30T07:49:57.090Z,9.30
2023-01-30T07:53:03.588Z,30.15
2023-01-30T07:56:24.413Z,36.47
2023-01-30T07:59:40.329Z,37.78
2023-01-30T08:02:46.433Z,24.45
2023-01-30T08:05:55.559Z,30.27
2023-01-30T08:08:57.819Z,28.33
2023-01-30T08:12:05.571Z,12.63
2023-01-30T08:15:12.056Z,35.38
2023-01-30T08:18:19.414Z,25.38
2023-01-30T08:21:21.853Z,27.30
2023-01-30T08:24:26.818Z,20.33
2023-01-30T08:27:29.162Z,19.88
2023-01-30T08:30:34.008Z,22.15
2023-01-30T08:33:39.526Z,37.00
2023-01-30T08:36:50.109Z,34.40
2023-01-30T08:39:52.615Z,30.23
2023-01-30T08:42:56.394Z,27.67
2023-01-30T08:45:58.964Z,28.92
2023-01-30T08:49:04.953Z,13.95
2023-01-30T08:52:15.598Z,11.67
2023-01-30T08:55:27.984Z,21.45
2023-01-30T08:58:30.317Z,25.77
2023-01-30T09:01:35.840Z,22.08
2023-01-30T09:04:43.083Z,31.00
2023-01-30T09:07:50.466Z,14.27
2023-01-30T09:11:06.949Z,14.60
2023-01-30T09:14:14.942Z,19.13
2023-01-30T09:17:17.177Z,23.52
2023-01-30T09:20:22.344Z,12.95
2023-01-30T09:23:24.771Z,16.93
2023-01-30T09:26:33.233Z,15.27
2023-01-30T09:29:38.348Z,20.52
2023-01-30T09:32:43.454Z,14.48
2023-01-30T09:35:51.854Z,20.95
2023-01-30T09:38:56.961Z,12.30
2023-01-30T09:42:02.259Z,20.25
2023-01-30T09:45:15.296Z,10.38
2023-01-30T09:48:42.616Z,9.23
2023-01-30T09:51:50.669Z,18.95
2023-01-30T09:55:01.814Z,16.77
2023-01-30T09:58:06.009Z,25.60
2023-01-30T10:01:50.827Z,22.08
2023-01-30T10:05:01.630Z,22.25
2023-01-30T10:08:08.943Z,14.27
2023-01-30T10:11:36.600Z,10.87
2023-01-30T10:15:22.859Z,14.68
2023-01-30T10:18:49.405Z,22.15
2023-01-30T10:22:25.211Z,25.73
2023-01-30T10:25:44.871Z,28.75
2023-01-30T10:29:08.005Z,29.23
2023-01-30T10:32:14.185Z,24.50
2023-01-30T10:35:20.853Z,21.15
2023-01-30T10:38:38.586Z,20.45
2023-01-30T10:41:54.487Z,17.23
2023-01-30T10:45:07.071Z,17.53
2023-01-30T10:48:20.339Z,24.88
2023-01-30T10:51:44.419Z,26.10
2023-01-30T10:55:10.519Z,20.52
2023-01-30T10:58:44.957Z,22.75
2023-01-30T11:02:01.911Z,13.10
2023-01-30T11:05:21.207Z,14.10
2023-01-30T11:08:34.330Z,19.88
2023-01-30T11:11:53.460Z,9.65
2023-01-30T11:15:09.031Z,31.45
2023-01-30T11:19:17.167Z,24.10
2023-01-30T11:22:02.705Z,19.02
2023-01-30T11:25:16.462Z,19.48
2023-01-30T11:28:26.267Z,19.38
2023-01-30T11:31:42.287Z,22.45
2023-01-30T11:35:04.801Z,22.27
2023-01-30T11:38:29.997Z,19.85
2023-01-30T11:42:08.795Z,27.10
2023-01-30T11:45:17.821Z,17.50
2023-01-30T11:48:32.945Z,15.15
2023-01-30T11:51:55.609Z,19.33
2023-01-30T11:55:07.042Z,18.60
2023-01-30T11:58:20.397Z,18.65
2023-01-30T12:01:33.974Z,21.92
2023-01-30T12:04:38.052Z,14.88
2023-01-30T12:07:41.459Z,15.60
2023-01-30T12:10:46.134Z,23.30
2023-01-30T12:13:49.644Z,24.33
2023-01-30T12:17:04.178Z,24.10
2023-01-30T12:20:37.428Z,14.95
2023-01-30T12:23:43.216Z,20.23
2023-01-30T12:27:04.755Z,23.70
2023-01-30T12:30:44.440Z,16.17
2023-01-30T12:33:49.238Z,23.17
2023-01-30T12:37:09.210Z,21.65
2023-01-30T12:40:39.156Z,25.83
2023-01-30T12:44:02.047Z,12.35
2023-01-30T12:47:33.563Z,13.63
2023-01-30T12:50:45.742Z,19.35
2023-01-30T12:54:09.285Z,24.02
2023-01-30T12:57:39.746Z,23.03
2023-01-30T13:00:48.260Z,8.90
2023-01-30T13:04:04.005Z,31.50
2023-01-30T13:07:26.799Z,27.42
2023-01-30T13:10:46.052Z,20.13
2023-01-30T13:14:00.352Z,20.07
2023-01-30T13:17:14.351Z,19.15
2023-01-30T13:20:37.887Z,10.98
2023-01-30T13:24:25.543Z,14.13
2023-01-30T13:27:41.906Z,15.75
2023-01-30T13:30:46.590Z,9.30
2023-01-30T13:34:05.506Z,16.15
2023-01-30T13:37:14.853Z,20.63
2023-01-30T13:40:25.038Z,10.20
2023-01-30T13:43:38.752Z,19.00
2023-01-30T13:46:50.886Z,26.70
2023-01-30T13:50:20.640Z,19.15
2023-01-30T13:53:36.086Z,19.58
2023-01-30T13:56:48.366Z,16.15
2023-01-30T14:00:11.506Z,24.95
2023-01-30T14:03:31.450Z,21.93
2023-01-30T14:06:38.504Z,12.02
2023-01-30T14:09:46.520Z,19.63
2023-01-30T14:12:56.931Z,15.18
2023-01-30T14:16:06.467Z,22.42
2023-01-30T14:19:48.156Z,20.23
2023-01-30T14:23:00.284Z,23.27
2023-01-30T14:26:07.229Z,25.48
2023-01-30T14:29:11.735Z,24.15
2023-01-30T14:32:19.337Z,22.50
2023-01-30T14:35:33.162Z,17.83
2023-01-30T14:38:40.159Z,19.67
2023-01-30T14:41:47.583Z,16.20
2023-01-30T14:45:17.593Z,14.60
2023-01-30T14:48:54.892Z,38.67
2023-01-30T14:52:04.666Z,27.00
2023-01-30T14:55:23.409Z,30.27
2023-01-30T14:58:28.767Z,15.68
2023-01-30T15:02:00.859Z,24.08
2023-01-30T15:05:22.737Z,18.15
2023-01-30T15:08:27.986Z,23.03
2023-01-30T15:11:37.440Z,17.63
2023-01-30T15:15:04.460Z,22.83
2023-01-30T15:18:11.833Z,21.92
2023-01-30T15:21:47.207Z,11.95
2023-01-30T15:25:20.614Z,20.70
2023-01-30T15:29:05.266Z,24.23
2023-01-30T15:32:29.772Z,18.60
2023-01-30T15:35:37.361Z,21.40
2023-01-30T15:38:49.059Z,20.65
2023-01-30T15:41:53.120Z,17.83
2023-01-30T15:45:14.440Z,18.02
2023-01-30T15:49:01.398Z,19.83
2023-01-30T15:52:08.126Z,21.63
2023-01-30T15:55:38.063Z,17.83
2023-01-30T15:58:43.179Z,27.07
2023-01-30T16:02:12.806Z,23.92
2023-01-30T16:05:28.538Z,39.20
2023-01-30T16:08:38.039Z,15.60
2023-01-30T16:11:45.929Z,22.80
2023-01-30T16:14:51.822Z,19.83
2023-01-30T16:18:15.481Z,18.42
2023-01-30T16:21:36.942Z,20.75
2023-01-30T16:24:44.031Z,25.10
2023-01-30T16:27:51.278Z,22.43
2023-01-30T16:31:00.781Z,12.30
2023-01-30T16:34:08.843Z,13.35
2023-01-30T16:37:16.549Z,12.80
2023-01-30T16:40:29.298Z,13.50
2023-01-30T16:43:37.737Z,23.20
2023-01-30T16:46:46.304Z,20.57
2023-01-30T16:50:12.937Z,17.38
2023-01-30T16:53:27.797Z,21.55
2023-01-30T16:56:41.461Z,19.60
2023-01-30T16:59:50.401Z,16.87
2023-01-30T17:03:02.739Z,20.13
2023-01-30T17:06:16.274Z,19.95
2023-01-30T17:09:46.374Z,22.42
2023-01-30T17:12:50.205Z,18.70
2023-01-30T17:15:53.675Z,21.43
2023-01-30T17:18:59.726Z,15.83
2023-01-30T17:22:08.594Z,16.65
2023-01-30T17:25:42.227Z,19.60
2023-01-30T17:28:49.367Z,19.17
2023-01-30T17:31:57.937Z,17.60
2023-01-30T17:35:03.931Z,17.23
2023-01-30T17:38:06.549Z,17.13
2023-01-30T17:41:23.480Z,18.08
2023-01-30T17:44:25.753Z,18.52
2023-01-30T17:47:42.596Z,18.80
2023-01-30T17:50:54.206Z,19.27
2023-01-30T17:53:56.535Z,19.40
2023-01-30T17:57:09.845Z,21.05
2023-01-30T18:00:18.659Z,18.05
2023-01-30T18:03:27.748Z,17.30
2023-01-30T18:06:34.089Z,17.87
2023-01-30T18:09:36.297Z,17.08
2023-01-30T18:12:43.106Z,15.60
2023-01-30T18:15:48.242Z,17.80
2023-01-30T18:18:54.461Z,16.40
2023-01-30T18:22:00.193Z,16.20
2023-01-30T18:25:17.581Z,15.88
2023-01-30T18:28:20.106Z,20.70
2023-01-30T18:31:26.326Z,17.92
2023-01-30T18:34:28.880Z,16.60
2023-01-30T18:37:34.082Z,16.57
2023-01-30T18:40:44.774Z,17.15
2023-01-30T18:43:51.492Z,12.82
2023-01-30T18:47:00.683Z,15.07
2023-01-30T18:50:13.912Z,14.33
2023-01-30T18:53:19.096Z,14.60
2023-01-30T18:56:34.535Z,14.55
2023-01-30T18:59:36.901Z,11.02
2023-01-30T19:02:39.309Z,13.50
2023-01-30T19:05:48.214Z,15.53
2023-01-30T19:08:50.833Z,16.70
2023-01-30T19:12:16.059Z,13.57
2023-01-30T19:15:19.821Z,15.07
2023-01-30T19:18:25.010Z,13.05
2023-01-30T19:21:28.733Z,12.37
2023-01-30T19:24:31.061Z,14.53
2023-01-30T19:27:36.512Z,14.30
2023-01-30T19:30:45.332Z,13.88
2023-01-30T19:34:04.692Z,13.82
2023-01-30T19:37:07.400Z,11.83
2023-01-30T19:40:11.144Z,13.10
2023-01-30T19:43:25.047Z,9.30
2023-01-30T19:46:36.989Z,10.88
2023-01-30T19:49:42.304Z,9.60
2023-01-30T19:52:54.475Z,9.97
2023-01-30T19:56:05.069Z,8.60
2023-01-30T19:59:09.835Z,9.60
2023-01-30T20:02:50.026Z,11.30
2023-01-30T20:05:53.479Z,7.88
2023-01-30T20:09:22.813Z,8.97
2023-01-30T20:12:30.804Z,9.83
2023-01-30T20:15:34.165Z,9.65
2023-01-30T20:18:42.238Z,8.52
2023-01-30T20:21:49.280Z,9.90
2023-01-30T20:24:54.298Z,10.07
2023-01-30T20:27:59.177Z,11.90
2023-01-30T20:31:11.359Z,8.13
2023-01-30T20:34:15.787Z,10.02
2023-01-30T20:37:26.320Z,10.38
2023-01-30T20:40:32.927Z,8.77
2023-01-30T20:43:49.058Z,9.00
2023-01-30T20:46:56.622Z,8.45
2023-01-30T20:50:01.429Z,9.35
2023-01-30T20:53:13.949Z,9.32
2023-01-30T20:56:16.428Z,9.60
2023-01-30T20:59:24.267Z,7.43
2023-01-30T21:02:34.389Z,8.70
2023-01-30T21:05:37.245Z,10.55
2023-01-30T21:09:02.784Z,9.23
2023-01-30T21:12:10.598Z,9.03
2023-01-30T21:15:23.529Z,8.90
2023-01-30T21:18:26.396Z,8.35
2023-01-30T21:21:55.026Z,8.52
2023-01-30T21:24:57.494Z,7.07
2023-01-30T21:28:10.113Z,7.80
2023-01-30T21:31:20.002Z,8.70
2023-01-30T21:34:29.169Z,6.97
2023-01-30T21:37:57.899Z,6.55
2023-01-30T21:41:18.730Z,5.93
2023-01-30T21:44:34.073Z,7.70
2023-01-30T21:47:42.937Z,7.20
2023-01-30T21:50:49.175Z,8.77
2023-01-30T21:54:05.927Z,7.97
2023-01-30T21:57:20.290Z,7.65
2023-01-30T22:00:23.999Z,8.60
2023-01-30T22:03:34.012Z,8.23
2023-01-30T22:06:40.549Z,3.70
2023-01-30T22:09:48.841Z,7.97
2023-01-30T22:12:51.274Z,7.20
2023-01-30T22:16:00.578Z,8.57
2023-01-30T22:19:06.616Z,8.77
2023-01-30T22:22:19.264Z,7.32
2023-01-30T22:25:30.565Z,2.80
2023-01-30T22:28:36.410Z,8.10
2023-01-30T22:31:53.165Z,9.80
2023-01-30T22:35:02.186Z,6.93
2023-01-30T22:38:04.455Z,7.63
2023-01-30T22:41:10.215Z,5.57
2023-01-30T22:44:14.731Z,6.15
2023-01-30T22:47:22.221Z,7.10
2023-01-30T22:50:27.580Z,4.33
2023-01-30T22:53:41.963Z,8.25
2023-01-30T22:56:51.005Z,5.45
2023-01-30T22:59:58.315Z,6.25
2023-01-30T23:03:06.903Z,6.17
2023-01-30T23:06:13.959Z,5.73
2023-01-30T23:09:22.388Z,6.18
2023-01-30T23:12:46.448Z,5.13
2023-01-30T23:15:51.356Z,5.43
2023-01-30T23:19:00.114Z,4.43
2023-01-30T23:22:09.173Z,3.70
2023-01-30T23:25:11.409Z,6.88
2023-01-30T23:28:17.632Z,6.00
2023-01-30T23:31:27.370Z,4.15
2023-01-30T23:34:33.226Z,5.63
2023-01-30T23:37:57.221Z,5.17
2023-01-30T23:41:11.788Z,3.83
2023-01-30T23:44:32.674Z,4.45
2023-01-30T23:47:37.940Z,5.85
2023-01-30T23:50:45.996Z,6.50
2023-01-30T23:53:54.613Z,4.17
2023-01-30T23:57:05.992Z,8.80
